sensor_id;sensor_type;location;lat;lon;timestamp;P1;durP1;ratioP1;P2;durP2;ratioP2
16039;SDS011;8124;48.634;8.120;2023-08-20T00:04:55;49.90;;;44.67;;
16039;SDS011;8124;48.634;8.120;2023-08-20T00:10:01;50.88;;;45.28;;
16039;SDS011;8124;48.634;8.120;2023-08-20T00:15:05;50.95;;;45.45;;
16039;SDS011;8124;48.634;8.120;2023-08-20T00:20:11;50.92;;;45.45;;
16039;SDS011;8124;48.634;8.120;2023-08-20T00:25:16;51.08;;;45.47;;
16039;SDS011;8124;48.634;8.120;2023-08-20T00:30:20;50.72;;;45.35;;
16039;SDS011;8124;48.634;8.120;2023-08-20T00:35:25;49.88;;;44.63;;
16039;SDS011;8124;48.634;8.120;2023-08-20T00:40:28;50.72;;;45.33;;
16039;SDS011;8124;48.634;8.120;2023-08-20T00:45:31;50.80;;;45.53;;
16039;SDS011;8124;48.634;8.120;2023-08-20T00:50:35;49.63;;;44.33;;
16039;SDS011;8124;48.634;8.120;2023-08-20T00:55:40;51.70;;;45.00;;
16039;SDS011;8124;48.634;8.120;2023-08-20T01:00:44;50.72;;;45.22;;
16039;SDS011;8124;48.634;8.120;2023-08-20T01:05:50;53.13;;;45.10;;
16039;SDS011;8124;48.634;8.120;2023-08-20T01:11:10;50.05;;;44.63;;
16039;SDS011;8124;48.634;8.120;2023-08-20T01:16:23;50.55;;;45.15;;
16039;SDS011;8124;48.634;8.120;2023-08-20T01:21:30;50.80;;;45.30;;
16039;SDS011;8124;48.634;8.120;2023-08-20T01:26:47;50.50;;;45.10;;
16039;SDS011;8124;48.634;8.120;2023-08-20T01:32:00;50.55;;;44.85;;
16039;SDS011;8124;48.634;8.120;2023-08-20T01:37:04;49.88;;;44.67;;
16039;SDS011;8124;48.634;8.120;2023-08-20T01:42:09;50.15;;;44.55;;
16039;SDS011;8124;48.634;8.120;2023-08-20T01:47:14;53.67;;;44.63;;
16039;SDS011;8124;48.634;8.120;2023-08-20T01:52:17;49.70;;;44.35;;
16039;SDS011;8124;48.634;8.120;2023-08-20T01:57:20;49.28;;;43.97;;
16039;SDS011;8124;48.634;8.120;2023-08-20T02:02:25;53.08;;;44.92;;
16039;SDS011;8124;48.634;8.120;2023-08-20T02:07:28;49.53;;;44.25;;
16039;SDS011;8124;48.634;8.120;2023-08-20T02:12:33;49.47;;;44.17;;
16039;SDS011;8124;48.634;8.120;2023-08-20T02:17:38;50.38;;;44.80;;
16039;SDS011;8124;48.634;8.120;2023-08-20T02:22:41;49.72;;;44.33;;
16039;SDS011;8124;48.634;8.120;2023-08-20T02:27:44;48.78;;;43.60;;
16039;SDS011;8124;48.634;8.120;2023-08-20T02:32:48;50.60;;;44.75;;
16039;SDS011;8124;48.634;8.120;2023-08-20T02:37:52;50.70;;;44.97;;
16039;SDS011;8124;48.634;8.120;2023-08-20T02:42:55;49.25;;;44.03;;
16039;SDS011;8124;48.634;8.120;2023-08-20T02:47:59;48.65;;;43.40;;
16039;SDS011;8124;48.634;8.120;2023-08-20T02:53:02;50.30;;;44.80;;
16039;SDS011;8124;48.634;8.120;2023-08-20T02:58:06;54.85;;;45.30;;
16039;SDS011;8124;48.634;8.120;2023-08-20T03:03:11;49.95;;;44.55;;
16039;SDS011;8124;48.634;8.120;2023-08-20T03:08:17;49.92;;;44.53;;
16039;SDS011;8124;48.634;8.120;2023-08-20T03:13:20;51.00;;;44.97;;
16039;SDS011;8124;48.634;8.120;2023-08-20T03:18:24;50.83;;;44.70;;
16039;SDS011;8124;48.634;8.120;2023-08-20T03:23:28;49.10;;;43.90;;
16039;SDS011;8124;48.634;8.120;2023-08-20T03:28:31;49.80;;;44.30;;
16039;SDS011;8124;48.634;8.120;2023-08-20T03:33:36;50.42;;;44.10;;
16039;SDS011;8124;48.634;8.120;2023-08-20T03:38:40;49.22;;;43.95;;
16039;SDS011;8124;48.634;8.120;2023-08-20T03:43:43;49.65;;;43.63;;
16039;SDS011;8124;48.634;8.120;2023-08-20T03:48:47;55.08;;;44.30;;
16039;SDS011;8124;48.634;8.120;2023-08-20T03:53:50;49.65;;;44.15;;
16039;SDS011;8124;48.634;8.120;2023-08-20T03:58:53;50.15;;;44.67;;
16039;SDS011;8124;48.634;8.120;2023-08-20T04:03:58;48.72;;;43.45;;
16039;SDS011;8124;48.634;8.120;2023-08-20T04:09:03;49.72;;;44.28;;
16039;SDS011;8124;48.634;8.120;2023-08-20T04:14:07;49.42;;;43.97;;
16039;SDS011;8124;48.634;8.120;2023-08-20T04:19:12;49.25;;;43.88;;
16039;SDS011;8124;48.634;8.120;2023-08-20T04:24:16;50.17;;;44.78;;
16039;SDS011;8124;48.634;8.120;2023-08-20T04:29:19;50.70;;;44.28;;
16039;SDS011;8124;48.634;8.120;2023-08-20T04:34:23;50.80;;;44.17;;
16039;SDS011;8124;48.634;8.120;2023-08-20T04:39:27;50.63;;;44.63;;
16039;SDS011;8124;48.634;8.120;2023-08-20T04:44:31;50.40;;;44.03;;
16039;SDS011;8124;48.634;8.120;2023-08-20T04:49:35;50.50;;;44.40;;
16039;SDS011;8124;48.634;8.120;2023-08-20T04:54:40;52.10;;;45.03;;
16039;SDS011;8124;48.634;8.120;2023-08-20T04:59:43;49.90;;;44.50;;
16039;SDS011;8124;48.634;8.120;2023-08-20T05:04:58;51.33;;;44.22;;
16039;SDS011;8124;48.634;8.120;2023-08-20T05:10:01;49.70;;;44.40;;
16039;SDS011;8124;48.634;8.120;2023-08-20T05:15:05;49.67;;;44.20;;
16039;SDS011;8124;48.634;8.120;2023-08-20T05:20:10;50.22;;;44.83;;
16039;SDS011;8124;48.634;8.120;2023-08-20T05:25:14;49.35;;;44.05;;
16039;SDS011;8124;48.634;8.120;2023-08-20T05:30:17;50.03;;;44.63;;
16039;SDS011;8124;48.634;8.120;2023-08-20T05:35:21;49.20;;;43.85;;
16039;SDS011;8124;48.634;8.120;2023-08-20T05:40:25;51.15;;;43.67;;
16039;SDS011;8124;48.634;8.120;2023-08-20T05:45:28;49.20;;;43.90;;
16039;SDS011;8124;48.634;8.120;2023-08-20T05:50:34;50.70;;;45.08;;
16039;SDS011;8124;48.634;8.120;2023-08-20T05:55:39;49.85;;;44.50;;
16039;SDS011;8124;48.634;8.120;2023-08-20T06:00:42;50.78;;;45.22;;
16039;SDS011;8124;48.634;8.120;2023-08-20T06:05:47;50.08;;;44.17;;
16039;SDS011;8124;48.634;8.120;2023-08-20T06:10:53;50.78;;;45.28;;
16039;SDS011;8124;48.634;8.120;2023-08-20T06:15:58;50.47;;;44.55;;
16039;SDS011;8124;48.634;8.120;2023-08-20T06:21:03;50.17;;;44.72;;
16039;SDS011;8124;48.634;8.120;2023-08-20T06:26:06;50.90;;;45.20;;
16039;SDS011;8124;48.634;8.120;2023-08-20T06:31:09;50.40;;;45.00;;
16039;SDS011;8124;48.634;8.120;2023-08-20T06:36:14;51.17;;;45.17;;
16039;SDS011;8124;48.634;8.120;2023-08-20T06:41:18;51.20;;;44.45;;
16039;SDS011;8124;48.634;8.120;2023-08-20T06:46:21;50.83;;;45.33;;
16039;SDS011;8124;48.634;8.120;2023-08-20T06:51:26;51.03;;;45.42;;
16039;SDS011;8124;48.634;8.120;2023-08-20T06:56:29;52.35;;;44.95;;
16039;SDS011;8124;48.634;8.120;2023-08-20T07:01:32;51.20;;;45.75;;
16039;SDS011;8124;48.634;8.120;2023-08-20T07:06:37;52.33;;;46.58;;
16039;SDS011;8124;48.634;8.120;2023-08-20T07:11:40;51.85;;;46.20;;
16039;SDS011;8124;48.634;8.120;2023-08-20T07:16:43;52.13;;;46.42;;
16039;SDS011;8124;48.634;8.120;2023-08-20T07:21:48;51.58;;;46.08;;
16039;SDS011;8124;48.634;8.120;2023-08-20T07:26:51;52.15;;;46.45;;
16039;SDS011;8124;48.634;8.120;2023-08-20T07:31:56;52.13;;;46.42;;
16039;SDS011;8124;48.634;8.120;2023-08-20T07:37:01;52.58;;;46.88;;
16039;SDS011;8124;48.634;8.120;2023-08-20T07:42:06;51.75;;;46.08;;
16039;SDS011;8124;48.634;8.120;2023-08-20T07:47:09;51.72;;;46.13;;
16039;SDS011;8124;48.634;8.120;2023-08-20T07:52:15;53.33;;;46.38;;
16039;SDS011;8124;48.634;8.120;2023-08-20T07:57:18;51.75;;;46.15;;
16039;SDS011;8124;48.634;8.120;2023-08-20T08:02:21;52.33;;;46.65;;
16039;SDS011;8124;48.634;8.120;2023-08-20T08:07:25;52.60;;;46.90;;
16039;SDS011;8124;48.634;8.120;2023-08-20T08:12:28;52.83;;;46.00;;
16039;SDS011;8124;48.634;8.120;2023-08-20T08:17:31;51.97;;;46.22;;
16039;SDS011;8124;48.634;8.120;2023-08-20T08:22:36;52.78;;;46.28;;
16039;SDS011;8124;48.634;8.120;2023-08-20T08:27:39;51.92;;;46.45;;
16039;SDS011;8124;48.634;8.120;2023-08-20T08:33:00;52.08;;;46.45;;
16039;SDS011;8124;48.634;8.120;2023-08-20T08:38:05;52.80;;;46.97;;
16039;SDS011;8124;48.634;8.120;2023-08-20T08:43:08;52.88;;;46.72;;
16039;SDS011;8124;48.634;8.120;2023-08-20T08:48:17;52.33;;;45.92;;
16039;SDS011;8124;48.634;8.120;2023-08-20T08:53:23;51.67;;;46.08;;
16039;SDS011;8124;48.634;8.120;2023-08-20T08:58:27;52.05;;;46.25;;
16039;SDS011;8124;48.634;8.120;2023-08-20T09:03:30;54.25;;;46.83;;
16039;SDS011;8124;48.634;8.120;2023-08-20T09:08:34;54.40;;;47.03;;
16039;SDS011;8124;48.634;8.120;2023-08-20T09:13:37;51.38;;;45.88;;
16039;SDS011;8124;48.634;8.120;2023-08-20T09:18:44;53.70;;;47.22;;
16039;SDS011;8124;48.634;8.120;2023-08-20T09:23:48;52.97;;;47.35;;
16039;SDS011;8124;48.634;8.120;2023-08-20T09:28:54;52.05;;;46.40;;
16039;SDS011;8124;48.634;8.120;2023-08-20T09:33:57;55.85;;;47.47;;
16039;SDS011;8124;48.634;8.120;2023-08-20T09:39:02;52.20;;;46.50;;
16039;SDS011;8124;48.634;8.120;2023-08-20T09:44:05;52.45;;;46.75;;
16039;SDS011;8124;48.634;8.120;2023-08-20T09:49:10;51.95;;;46.40;;
16039;SDS011;8124;48.634;8.120;2023-08-20T09:54:21;53.40;;;47.00;;
16039;SDS011;8124;48.634;8.120;2023-08-20T09:59:30;52.67;;;46.78;;
16039;SDS011;8124;48.634;8.120;2023-08-20T10:04:33;52.95;;;47.25;;
16039;SDS011;8124;48.634;8.120;2023-08-20T10:09:38;52.60;;;46.58;;
16039;SDS011;8124;48.634;8.120;2023-08-20T10:14:45;52.40;;;46.45;;
16039;SDS011;8124;48.634;8.120;2023-08-20T10:19:48;55.28;;;46.53;;
16039;SDS011;8124;48.634;8.120;2023-08-20T10:24:52;55.05;;;47.08;;
16039;SDS011;8124;48.634;8.120;2023-08-20T10:29:55;53.25;;;47.55;;
16039;SDS011;8124;48.634;8.120;2023-08-20T10:35:00;52.38;;;46.40;;
16039;SDS011;8124;48.634;8.120;2023-08-20T10:40:06;52.75;;;46.97;;
16039;SDS011;8124;48.634;8.120;2023-08-20T10:45:09;52.50;;;46.90;;
16039;SDS011;8124;48.634;8.120;2023-08-20T10:50:15;52.97;;;46.90;;
16039;SDS011;8124;48.634;8.120;2023-08-20T10:55:22;52.33;;;46.63;;
16039;SDS011;8124;48.634;8.120;2023-08-20T11:00:26;52.58;;;46.97;;
16039;SDS011;8124;48.634;8.120;2023-08-20T11:05:29;55.25;;;47.63;;
16039;SDS011;8124;48.634;8.120;2023-08-20T11:10:34;52.63;;;46.95;;
16039;SDS011;8124;48.634;8.120;2023-08-20T11:15:38;52.20;;;46.65;;
16039;SDS011;8124;48.634;8.120;2023-08-20T11:20:41;53.28;;;46.65;;
16039;SDS011;8124;48.634;8.120;2023-08-20T11:25:46;52.67;;;47.10;;
16039;SDS011;8124;48.634;8.120;2023-08-20T11:30:49;52.42;;;46.80;;
16039;SDS011;8124;48.634;8.120;2023-08-20T11:35:52;52.28;;;46.60;;
16039;SDS011;8124;48.634;8.120;2023-08-20T11:40:58;51.05;;;45.63;;
16039;SDS011;8124;48.634;8.120;2023-08-20T11:46:01;52.40;;;46.00;;
16039;SDS011;8124;48.634;8.120;2023-08-20T11:51:04;53.20;;;46.92;;
16039;SDS011;8124;48.634;8.120;2023-08-20T11:56:09;52.90;;;47.13;;
16039;SDS011;8124;48.634;8.120;2023-08-20T12:01:15;52.30;;;46.78;;
16039;SDS011;8124;48.634;8.120;2023-08-20T12:06:20;51.47;;;46.13;;
16039;SDS011;8124;48.634;8.120;2023-08-20T12:11:27;51.47;;;45.97;;
16039;SDS011;8124;48.634;8.120;2023-08-20T12:16:30;52.10;;;46.42;;
16039;SDS011;8124;48.634;8.120;2023-08-20T12:21:33;51.63;;;46.13;;
16039;SDS011;8124;48.634;8.120;2023-08-20T12:26:37;51.65;;;46.17;;
16039;SDS011;8124;48.634;8.120;2023-08-20T12:31:41;51.35;;;45.90;;
16039;SDS011;8124;48.634;8.120;2023-08-20T12:36:44;52.95;;;46.45;;
16039;SDS011;8124;48.634;8.120;2023-08-20T12:41:48;51.13;;;45.83;;
16039;SDS011;8124;48.634;8.120;2023-08-20T12:46:51;52.13;;;46.53;;
16039;SDS011;8124;48.634;8.120;2023-08-20T12:51:54;51.63;;;46.15;;
16039;SDS011;8124;48.634;8.120;2023-08-20T12:56:59;51.63;;;45.88;;
16039;SDS011;8124;48.634;8.120;2023-08-20T13:02:02;52.10;;;46.70;;
16039;SDS011;8124;48.634;8.120;2023-08-20T13:07:06;52.78;;;46.78;;
16039;SDS011;8124;48.634;8.120;2023-08-20T13:12:11;52.47;;;46.63;;
16039;SDS011;8124;48.634;8.120;2023-08-20T13:17:15;52.10;;;46.70;;
16039;SDS011;8124;48.634;8.120;2023-08-20T13:22:18;51.70;;;46.10;;
16039;SDS011;8124;48.634;8.120;2023-08-20T13:27:22;50.83;;;45.60;;
16039;SDS011;8124;48.634;8.120;2023-08-20T13:32:26;50.92;;;45.47;;
16039;SDS011;8124;48.634;8.120;2023-08-20T13:37:29;51.08;;;45.53;;
16039;SDS011;8124;48.634;8.120;2023-08-20T13:42:33;52.92;;;45.90;;
16039;SDS011;8124;48.634;8.120;2023-08-20T13:47:37;51.08;;;45.70;;
16039;SDS011;8124;48.634;8.120;2023-08-20T13:52:40;50.92;;;45.42;;
16039;SDS011;8124;48.634;8.120;2023-08-20T13:57:44;51.50;;;45.78;;
16039;SDS011;8124;48.634;8.120;2023-08-20T14:02:47;51.35;;;45.75;;
16039;SDS011;8124;48.634;8.120;2023-08-20T14:07:50;51.95;;;46.45;;
16039;SDS011;8124;48.634;8.120;2023-08-20T14:12:55;51.75;;;46.35;;
16039;SDS011;8124;48.634;8.120;2023-08-20T14:17:58;52.17;;;46.30;;
16039;SDS011;8124;48.634;8.120;2023-08-20T14:23:01;52.05;;;46.42;;
16039;SDS011;8124;48.634;8.120;2023-08-20T14:28:05;51.95;;;46.38;;
16039;SDS011;8124;48.634;8.120;2023-08-20T14:33:09;50.88;;;45.63;;
16039;SDS011;8124;48.634;8.120;2023-08-20T14:38:12;51.08;;;45.72;;
16039;SDS011;8124;48.634;8.120;2023-08-20T14:43:16;51.92;;;46.28;;
16039;SDS011;8124;48.634;8.120;2023-08-20T14:48:19;51.28;;;45.88;;
16039;SDS011;8124;48.634;8.120;2023-08-20T14:53:22;51.10;;;45.55;;
16039;SDS011;8124;48.634;8.120;2023-08-20T14:58:26;52.17;;;46.67;;
16039;SDS011;8124;48.634;8.120;2023-08-20T15:03:33;51.58;;;46.08;;
16039;SDS011;8124;48.634;8.120;2023-08-20T15:08:36;50.60;;;45.25;;
16039;SDS011;8124;48.634;8.120;2023-08-20T15:13:40;51.15;;;45.75;;
16039;SDS011;8124;48.634;8.120;2023-08-20T15:18:44;50.97;;;45.75;;
16039;SDS011;8124;48.634;8.120;2023-08-20T15:23:47;50.72;;;45.53;;
16039;SDS011;8124;48.634;8.120;2023-08-20T15:28:51;51.05;;;45.65;;
16039;SDS011;8124;48.634;8.120;2023-08-20T15:33:54;51.00;;;45.83;;
16039;SDS011;8124;48.634;8.120;2023-08-20T15:38:57;50.95;;;45.65;;
16039;SDS011;8124;48.634;8.120;2023-08-20T15:44:02;50.72;;;45.30;;
16039;SDS011;8124;48.634;8.120;2023-08-20T15:49:05;51.42;;;46.13;;
16039;SDS011;8124;48.634;8.120;2023-08-20T15:54:08;51.17;;;45.67;;
16039;SDS011;8124;48.634;8.120;2023-08-20T15:59:13;51.15;;;45.35;;
16039;SDS011;8124;48.634;8.120;2023-08-20T16:04:16;50.90;;;45.55;;
16039;SDS011;8124;48.634;8.120;2023-08-20T16:09:19;50.92;;;45.45;;
16039;SDS011;8124;48.634;8.120;2023-08-20T16:14:39;50.50;;;45.33;;
16039;SDS011;8124;48.634;8.120;2023-08-20T16:19:42;50.22;;;44.92;;
16039;SDS011;8124;48.634;8.120;2023-08-20T16:24:46;50.75;;;45.25;;
16039;SDS011;8124;48.634;8.120;2023-08-20T16:29:50;49.90;;;44.67;;
16039;SDS011;8124;48.634;8.120;2023-08-20T16:34:53;50.60;;;45.13;;
16039;SDS011;8124;48.634;8.120;2023-08-20T16:39:57;50.15;;;44.75;;
16039;SDS011;8124;48.634;8.120;2023-08-20T16:45:01;50.45;;;44.95;;
16039;SDS011;8124;48.634;8.120;2023-08-20T16:50:05;50.60;;;45.38;;
16039;SDS011;8124;48.634;8.120;2023-08-20T16:55:09;50.22;;;44.92;;
16039;SDS011;8124;48.634;8.120;2023-08-20T17:00:14;50.75;;;45.40;;
16039;SDS011;8124;48.634;8.120;2023-08-20T17:05:17;50.17;;;44.97;;
16039;SDS011;8124;48.634;8.120;2023-08-20T17:10:20;50.50;;;45.30;;
16039;SDS011;8124;48.634;8.120;2023-08-20T17:15:27;50.55;;;45.25;;
16039;SDS011;8124;48.634;8.120;2023-08-20T17:20:30;49.83;;;44.78;;
16039;SDS011;8124;48.634;8.120;2023-08-20T17:25:35;50.80;;;45.38;;
16039;SDS011;8124;48.634;8.120;2023-08-20T17:30:39;51.95;;;46.78;;
16039;SDS011;8124;48.634;8.120;2023-08-20T17:35:42;50.42;;;45.05;;
16039;SDS011;8124;48.634;8.120;2023-08-20T17:40:46;49.80;;;44.70;;
16039;SDS011;8124;48.634;8.120;2023-08-20T17:45:50;50.88;;;45.58;;
16039;SDS011;8124;48.634;8.120;2023-08-20T17:50:53;50.17;;;44.95;;
16039;SDS011;8124;48.634;8.120;2023-08-20T17:55:56;50.92;;;45.72;;
16039;SDS011;8124;48.634;8.120;2023-08-20T18:01:03;51.30;;;45.90;;
16039;SDS011;8124;48.634;8.120;2023-08-20T18:06:06;50.67;;;45.35;;
16039;SDS011;8124;48.634;8.120;2023-08-20T18:11:09;50.88;;;45.55;;
16039;SDS011;8124;48.634;8.120;2023-08-20T18:16:14;49.70;;;44.55;;
16039;SDS011;8124;48.634;8.120;2023-08-20T18:21:17;50.50;;;45.20;;
16039;SDS011;8124;48.634;8.120;2023-08-20T18:26:20;50.30;;;45.00;;
16039;SDS011;8124;48.634;8.120;2023-08-20T18:31:25;50.83;;;45.33;;
16039;SDS011;8124;48.634;8.120;2023-08-20T18:36:28;50.65;;;45.17;;
16039;SDS011;8124;48.634;8.120;2023-08-20T18:41:32;50.83;;;45.55;;
16039;SDS011;8124;48.634;8.120;2023-08-20T18:46:37;51.92;;;45.95;;
16039;SDS011;8124;48.634;8.120;2023-08-20T18:51:40;51.00;;;45.53;;
16039;SDS011;8124;48.634;8.120;2023-08-20T18:56:43;51.15;;;45.70;;
16039;SDS011;8124;48.634;8.120;2023-08-20T19:01:47;50.22;;;45.03;;
16039;SDS011;8124;48.634;8.120;2023-08-20T19:06:50;50.03;;;44.72;;
16039;SDS011;8124;48.634;8.120;2023-08-20T19:11:54;50.42;;;45.25;;
16039;SDS011;8124;48.634;8.120;2023-08-20T19:16:59;50.97;;;45.60;;
16039;SDS011;8124;48.634;8.120;2023-08-20T19:22:02;50.28;;;45.08;;
16039;SDS011;8124;48.634;8.120;2023-08-20T19:27:05;50.75;;;45.55;;
16039;SDS011;8124;48.634;8.120;2023-08-20T19:32:09;50.80;;;45.47;;
16039;SDS011;8124;48.634;8.120;2023-08-20T19:37:12;50.50;;;45.20;;
16039;SDS011;8124;48.634;8.120;2023-08-20T19:42:15;50.50;;;45.20;;
16039;SDS011;8124;48.634;8.120;2023-08-20T19:47:20;51.55;;;46.15;;
16039;SDS011;8124;48.634;8.120;2023-08-20T19:52:23;51.08;;;45.78;;
16039;SDS011;8124;48.634;8.120;2023-08-20T19:57:25;50.55;;;45.22;;
16039;SDS011;8124;48.634;8.120;2023-08-20T20:02:30;51.45;;;45.85;;
16039;SDS011;8124;48.634;8.120;2023-08-20T20:07:33;51.78;;;46.17;;
16039;SDS011;8124;48.634;8.120;2023-08-20T20:12:37;52.33;;;45.80;;
16039;SDS011;8124;48.634;8.120;2023-08-20T20:17:42;51.58;;;46.28;;
16039;SDS011;8124;48.634;8.120;2023-08-20T20:22:46;51.30;;;45.80;;
16039;SDS011;8124;48.634;8.120;2023-08-20T20:27:49;51.35;;;45.97;;
16039;SDS011;8124;48.634;8.120;2023-08-20T20:32:53;51.72;;;46.40;;
16039;SDS011;8124;48.634;8.120;2023-08-20T20:38:00;50.20;;;45.05;;
16039;SDS011;8124;48.634;8.120;2023-08-20T20:43:04;51.17;;;45.83;;
16039;SDS011;8124;48.634;8.120;2023-08-20T20:48:08;51.22;;;45.72;;
16039;SDS011;8124;48.634;8.120;2023-08-20T20:53:12;50.97;;;45.67;;
16039;SDS011;8124;48.634;8.120;2023-08-20T20:58:15;51.05;;;45.65;;
16039;SDS011;8124;48.634;8.120;2023-08-20T21:03:19;50.88;;;45.58;;
16039;SDS011;8124;48.634;8.120;2023-08-20T21:08:22;51.05;;;45.63;;
16039;SDS011;8124;48.634;8.120;2023-08-20T21:13:25;50.72;;;45.35;;
16039;SDS011;8124;48.634;8.120;2023-08-20T21:18:30;50.90;;;45.47;;
16039;SDS011;8124;48.634;8.120;2023-08-20T21:23:33;51.15;;;45.65;;
16039;SDS011;8124;48.634;8.120;2023-08-20T21:28:36;51.22;;;45.58;;
16039;SDS011;8124;48.634;8.120;2023-08-20T21:33:40;51.00;;;45.45;;
16039;SDS011;8124;48.634;8.120;2023-08-20T21:38:43;50.13;;;44.88;;
16039;SDS011;8124;48.634;8.120;2023-08-20T21:43:46;51.83;;;46.15;;
16039;SDS011;8124;48.634;8.120;2023-08-20T21:48:50;51.35;;;45.60;;
16039;SDS011;8124;48.634;8.120;2023-08-20T21:53:53;51.03;;;45.67;;
16039;SDS011;8124;48.634;8.120;2023-08-20T21:58:56;50.78;;;45.25;;
16039;SDS011;8124;48.634;8.120;2023-08-20T22:04:00;50.80;;;45.42;;
16039;SDS011;8124;48.634;8.120;2023-08-20T22:09:04;51.00;;;45.53;;
16039;SDS011;8124;48.634;8.120;2023-08-20T22:14:06;51.15;;;45.72;;
16039;SDS011;8124;48.634;8.120;2023-08-20T22:19:11;50.70;;;45.50;;
16039;SDS011;8124;48.634;8.120;2023-08-20T22:24:14;52.28;;;46.78;;
16039;SDS011;8124;48.634;8.120;2023-08-20T22:29:20;52.50;;;47.08;;
16039;SDS011;8124;48.634;8.120;2023-08-20T22:34:25;53.58;;;45.60;;
16039;SDS011;8124;48.634;8.120;2023-08-20T22:39:28;51.75;;;46.30;;
16039;SDS011;8124;48.634;8.120;2023-08-20T22:44:31;51.92;;;45.95;;
16039;SDS011;8124;48.634;8.120;2023-08-20T22:49:35;50.97;;;45.58;;
16039;SDS011;8124;48.634;8.120;2023-08-20T22:54:38;50.95;;;45.65;;
16039;SDS011;8124;48.634;8.120;2023-08-20T22:59:41;50.22;;;44.92;;
16039;SDS011;8124;48.634;8.120;2023-08-20T23:04:46;50.22;;;44.85;;
16039;SDS011;8124;48.634;8.120;2023-08-20T23:09:49;51.42;;;45.78;;
16039;SDS011;8124;48.634;8.120;2023-08-20T23:14:52;50.70;;;45.22;;
16039;SDS011;8124;48.634;8.120;2023-08-20T23:19:56;51.25;;;45.65;;
16039;SDS011;8124;48.634;8.120;2023-08-20T23:24:59;49.90;;;44.67;;
16039;SDS011;8124;48.634;8.120;2023-08-20T23:30:02;51.08;;;45.10;;
16039;SDS011;8124;48.634;8.120;2023-08-20T23:35:09;50.50;;;45.05;;
16039;SDS011;8124;48.634;8.120;2023-08-20T23:40:12;50.90;;;45.55;;
16039;SDS011;8124;48.634;8.120;2023-08-20T23:45:15;50.83;;;45.47;;
16039;SDS011;8124;48.634;8.120;2023-08-20T23:50:19;53.08;;;45.45;;
16039;SDS011;8124;48.634;8.120;2023-08-20T23:55:22;50.08;;;44.72;;
